Time;durP1;ratioP1;P1;durP2;ratioP2;P2;SDS_P1;SDS_P2;PMS_P1;PMS_P2;Temp;Humidity;BMP_temperature;BMP_pressure;BME280_temperature;BME280_humidity;BME280_pressure;Samples;Min_cycle;Max_cycle;Signal;HPM_P1;HPM_P2
2021/11/13 00:00:29;;;;;;;;;;;;;;;;;;5016161;28;19913;-77
2021/11/13 00:02:55;;;;;;;;;;;;;;;;;;5018911;28;19921;-77
2021/11/13 00:05:21;;;;;;;;;;;;;;;;;;5018048;28;19940;-76
2021/11/13 00:07:47;;;;;;;;;;;;;;;;;;5019513;28;19932;-77
2021/11/13 00:10:13;;;;;;;;;;;;;;;;;;5015248;28;19914;-77
2021/11/13 00:12:39;;;;;;;;;;;;;;;;;;5023441;28;19914;-78
2021/11/13 00:15:04;;;;;;;;;;;;;;;;;;5015743;28;19972;-76
2021/11/13 00:17:30;;;;;;;;;;;;;;;;;;5016744;28;20413;-78
2021/11/13 00:19:56;;;;;;;;;;;;;;;;;;5010161;28;19920;-76
2021/11/13 00:22:22;;;;;;;;;;;;;;;;;;5021887;28;19917;-76
2021/11/13 00:24:48;;;;;;;;;;;;;;;;;;5022940;28;19924;-77
2021/11/13 00:27:14;;;;;;;;;;;;;;;;;;5024103;28;20006;-78
2021/11/13 00:29:40;;;;;;;;;;;;;;;;;;5020349;28;20253;-77
2021/11/13 00:32:06;;;;;;;;;;;;;;;;;;5014048;28;19928;-77
2021/11/13 00:34:31;;;;;;;;;;;;;;;;;;5023925;28;19917;-79
2021/11/13 00:36:57;;;;;;;;;;;;;;;;;;5025836;28;19944;-77
2021/11/13 00:39:23;;;;;;;;;;;;;;;;;;5009611;28;20218;-77
2021/11/13 00:41:49;;;;;;;;;;;;;;;;;;5016426;28;20074;-80
2021/11/13 00:44:15;;;;;;;;;;;;;;;;;;5026028;28;19917;-76
2021/11/13 00:46:41;;;;;;;;;;;;;;;;;;5011954;28;20313;-77
2021/11/13 00:49:07;;;;;;;;;;;;;;;;;;5016816;28;20391;-77
2021/11/13 00:51:33;;;;;;;;;;;;;;;;;;5022219;28;19913;-77
2021/11/13 00:53:58;;;;;;;;;;;;;;;;;;5008492;28;19919;-78
2021/11/13 00:56:24;;;;;;;;;;;;;;;;;;5005754;28;20390;-78
2021/11/13 00:58:50;;;;;;;;;;;;;;;;;;5015029;28;19924;-78
2021/11/13 01:01:16;;;;;;;;;;;;;;;;;;5021441;28;20460;-77
2021/11/13 01:03:42;;;;;;;;;;;;;;;;;;5019514;28;19917;-78
2021/11/13 01:06:08;;;;;;;;;;;;;;;;;;5009705;28;19913;-78
2021/11/13 01:08:34;;;;;;;;;;;;;;;;;;5020821;28;19983;-77
2021/11/13 01:11:00;;;;;;;;;;;;;;;;;;5026967;28;20011;-77
2021/11/13 01:13:25;;;;;;;;;;;;;;;;;;5027082;28;19916;-77
2021/11/13 01:15:51;;;;;;;;;;;;;;;;;;5027032;28;19913;-78
2021/11/13 01:18:17;;;;;;;;;;;;;;;;;;5026721;28;19917;-77
2021/11/13 01:20:43;;;;;;;;;;;;;;;;;;5028280;28;19913;-78
2021/11/13 01:23:09;;;;;;;;;;;;;;;;;;5022962;28;20164;-78
2021/11/13 01:25:35;;;;;;;;;;;;;;;;;;5004862;28;19917;-77
2021/11/13 01:28:01;;;;;;;;;;;;;;;;;;5006981;28;19922;-75
2021/11/13 01:30:27;;;;;;;;;;;;;;;;;;5011759;28;19967;-77
2021/11/13 01:32:52;;;;;;;;;;;;;;;;;;5026319;28;20003;-77
2021/11/13 01:35:19;;;;;;;;;;;;;;;;;;5027178;28;20004;-77
2021/11/13 01:37:44;;;;;;;;;;;;;;;;;;5026354;28;19951;-76
2021/11/13 01:40:10;;;;;;;;;;;;;;;;;;5024408;28;19921;-78
2021/11/13 01:42:36;;;;;;;;;;;;;;;;;;5028160;28;19913;-77
2021/11/13 01:45:02;;;;;;;;;;;;;;;;;;5019102;28;19921;-76
2021/11/13 01:47:28;;;;;;;;;;;;;;;;;;5007708;28;20441;-77
2021/11/13 01:49:54;;;;;;;;;;;;;;;;;;5008206;28;19924;-77
2021/11/13 01:52:20;;;;;;;;;;;;;;;;;;5013160;28;19999;-77
2021/11/13 01:54:46;;;;;;;;;;;;;;;;;;5016343;28;19920;-79
2021/11/13 01:57:19;;;;;;;;;;;;;;;;;;5020959;28;20442;-76
2021/11/13 01:59:45;;;;;;;;;;;;;;;;;;5006551;28;19922;-78
2021/11/13 02:02:11;;;;;;;;;;;;;;;;;;5006409;28;19920;-77
2021/11/13 02:04:37;;;;;;;;;;;;;;;;;;5006701;28;20276;-78
2021/11/13 02:07:03;;;;;;;;;;;;;;;;;;5007074;28;20007;-79
2021/11/13 02:09:29;;;;;;;;;;;;;;;;;;5007029;28;20468;-75
2021/11/13 02:11:55;;;;;;;;;;;;;;;;;;5008036;28;19920;-78
2021/11/13 02:14:21;;;;;;;;;;;;;;;;;;5006343;28;19914;-77
2021/11/13 02:16:47;;;;;;;;;;;;;;;;;;5007826;28;19910;-79
2021/11/13 02:19:13;;;;;;;;;;;;;;;;;;5006331;28;19913;-79
2021/11/13 02:21:39;;;;;;;;;;;;;;;;;;5006344;28;19917;-78
2021/11/13 02:24:05;;;;;;;;;;;;;;;;;;5022059;28;20286;-76
2021/11/13 02:26:31;;;;;;;;;;;;;;;;;;5025517;28;19917;-77
2021/11/13 02:28:57;;;;;;;;;;;;;;;;;;5025033;28;19971;-76
2021/11/13 02:31:23;;;;;;;;;;;;;;;;;;5016336;28;19937;-78
2021/11/13 02:33:49;;;;;;;;;;;;;;;;;;5016045;28;19914;-77
2021/11/13 02:36:14;;;;;;;;;;;;;;;;;;5027491;28;19959;-76
2021/11/13 02:38:40;;;;;;;;;;;;;;;;;;5025162;28;19921;-76
2021/11/13 02:41:06;;;;;;;;;;;;;;;;;;5012716;28;20392;-76
2021/11/13 02:43:32;;;;;;;;;;;;;;;;;;5007133;28;19914;-77
2021/11/13 02:45:58;;;;;;;;;;;;;;;;;;5006517;28;20293;-76
2021/11/13 02:48:24;;;;;;;;;;;;;;;;;;5006094;28;20131;-76
2021/11/13 02:50:50;;;;;;;;;;;;;;;;;;5007911;28;20317;-79
2021/11/13 02:53:16;;;;;;;;;;;;;;;;;;5013023;28;19917;-75
2021/11/13 02:55:42;;;;;;;;;;;;;;;;;;5009791;28;20034;-78
2021/11/13 02:58:08;;;;;;;;;;;;;;;;;;5015475;28;20453;-77
2021/11/13 03:00:33;;;;;;;;;;;;;;;;;;5011058;28;19917;-76
2021/11/13 03:02:59;;;;;;;;;;;;;;;;;;5011867;28;19913;-75
2021/11/13 03:05:25;;;;;;;;;;;;;;;;;;5009973;28;19916;-77
2021/11/13 03:07:51;;;;;;;;;;;;;;;;;;5009731;28;19964;-78
2021/11/13 03:10:17;;;;;;;;;;;;;;;;;;5009488;28;19914;-77
2021/11/13 03:12:43;;;;;;;;;;;;;;;;;;5009607;28;19941;-77
2021/11/13 03:15:09;;;;;;;;;;;;;;;;;;5011934;28;20320;-78
2021/11/13 03:17:35;;;;;;;;;;;;;;;;;;5029620;28;20031;-79
2021/11/13 03:20:00;;;;;;;;;;;;;;;;;;5010679;28;20377;-75
2021/11/13 03:22:26;;;;;;;;;;;;;;;;;;5029253;28;19913;-79
2021/11/13 03:24:52;;;;;;;;;;;;;;;;;;5026704;28;19913;-77
2021/11/13 03:27:18;;;;;;;;;;;;;;;;;;5028482;28;20414;-76
2021/11/13 03:29:46;;;;;;;;;;;;;;;;;;5029055;28;19954;-79
2021/11/13 03:32:12;;;;;;;;;;;;;;;;;;5028300;28;19988;-76
2021/11/13 03:34:38;;;;;;;;;;;;;;;;;;5027801;28;20445;-75
2021/11/13 03:37:04;;;;;;;;;;;;;;;;;;5028057;28;19935;-76
2021/11/13 03:39:30;;;;;;;;;;;;;;;;;;5010166;28;19917;-79
2021/11/13 03:41:56;;;;;;;;;;;;;;;;;;5008951;28;19910;-78
2021/11/13 03:44:22;;;;;;;;;;;;;;;;;;5009071;28;19909;-77
2021/11/13 03:46:48;;;;;;;;;;;;;;;;;;5023954;28;19924;-76
2021/11/13 03:49:15;;;;;;;;;;;;;;;;;;5027825;28;20007;-76
2021/11/13 03:51:41;;;;;;;;;;;;;;;;;;5028563;28;20316;-78
2021/11/13 03:54:06;;;;;;;;;;;;;;;;;;5015756;28;19963;-78
2021/11/13 03:56:32;;;;;;;;;;;;;;;;;;5027825;28;20273;-77
2021/11/13 03:58:58;;;;;;;;;;;;;;;;;;5028094;28;20006;-76
2021/11/13 04:01:24;;;;;;;;;;;;;;;;;;5011383;28;19921;-77
2021/11/13 04:03:50;;;;;;;;;;;;;;;;;;5008163;28;20008;-76
2021/11/13 04:06:16;;;;;;;;;;;;;;;;;;5010057;28;20274;-78
2021/11/13 04:08:42;;;;;;;;;;;;;;;;;;5008451;28;19920;-79
2021/11/13 04:11:08;;;;;;;;;;;;;;;;;;5009271;28;19949;-76
2021/11/13 04:13:34;;;;;;;;;;;;;;;;;;5009523;28;19914;-77
2021/11/13 04:16:00;;;;;;;;;;;;;;;;;;5008321;28;19921;-77
2021/11/13 04:18:26;;;;;;;;;;;;;;;;;;5007941;28;19925;-77
2021/11/13 04:20:52;;;;;;;;;;;;;;;;;;5008596;28;19910;-78
2021/11/13 04:23:17;;;;;;;;;;;;;;;;;;5009516;28;20413;-75
2021/11/13 04:25:44;;;;;;;;;;;;;;;;;;5006046;28;19910;-79
2021/11/13 04:28:09;;;;;;;;;;;;;;;;;;5008858;28;19927;-79
2021/11/13 04:30:35;;;;;;;;;;;;;;;;;;5007913;28;20344;-78
2021/11/13 04:33:01;;;;;;;;;;;;;;;;;;5007765;28;19920;-77
2021/11/13 04:37:56;;;;;;;;;;;;;;;;;;5009531;28;20259;-76
2021/11/13 04:40:22;;;;;;;;;;;;;;;;;;5007742;28;19959;-79
2021/11/13 04:42:48;;;;;;;;;;;;;;;;;;5007693;28;19960;-79
2021/11/13 04:45:14;;;;;;;;;;;;;;;;;;5011653;28;20000;-78
2021/11/13 04:47:40;;;;;;;;;;;;;;;;;;5026678;28;19909;-77
2021/11/13 04:50:06;;;;;;;;;;;;;;;;;;5008900;28;20000;-79
2021/11/13 04:52:32;;;;;;;;;;;;;;;;;;5007592;28;20016;-79
2021/11/13 04:54:58;;;;;;;;;;;;;;;;;;5017735;28;20625;-77
2021/11/13 04:57:24;;;;;;;;;;;;;;;;;;5028888;28;19968;-79
2021/11/13 04:59:49;;;;;;;;;;;;;;;;;;5027283;28;19962;-78
2021/11/13 05:02:15;;;;;;;;;;;;;;;;;;5012424;28;19918;-79
2021/11/13 05:04:41;;;;;;;;;;;;;;;;;;5007104;28;19913;-79
2021/11/13 05:07:07;;;;;;;;;;;;;;;;;;5007378;28;19919;-78
2021/11/13 05:09:33;;;;;;;;;;;;;;;;;;5007408;28;19913;-77
2021/11/13 05:11:59;;;;;;;;;;;;;;;;;;5015102;28;20095;-79
2021/11/13 05:14:25;;;;;;;;;;;;;;;;;;5028360;28;19913;-77
2021/11/13 05:16:51;;;;;;;;;;;;;;;;;;5026847;28;20102;-77
2021/11/13 05:19:16;;;;;;;;;;;;;;;;;;5024880;28;19921;-78
2021/11/13 05:21:42;;;;;;;;;;;;;;;;;;5027223;28;19909;-78
2021/11/13 05:24:08;;;;;;;;;;;;;;;;;;5026587;28;20369;-80
2021/11/13 05:26:34;;;;;;;;;;;;;;;;;;5027167;28;19959;-76
2021/11/13 05:29:00;;;;;;;;;;;;;;;;;;5026322;28;19925;-79
2021/11/13 05:31:26;;;;;;;;;;;;;;;;;;5020501;28;19913;-79
2021/11/13 05:33:52;;;;;;;;;;;;;;;;;;5013147;28;19936;-80
2021/11/13 05:36:18;;;;;;;;;;;;;;;;;;5014574;28;19979;-80
2021/11/13 05:38:44;;;;;;;;;;;;;;;;;;5008546;28;20382;-79
2021/11/13 05:41:10;;;;;;;;;;;;;;;;;;5016499;28;20008;-79
2021/11/13 05:43:35;;;;;;;;;;;;;;;;;;5026316;28;20031;-81
2021/11/13 05:46:01;;;;;;;;;;;;;;;;;;5026185;28;20333;-84
2021/11/13 05:48:27;;;;;;;;;;;;;;;;;;5027501;28;19915;-86
2021/11/13 05:50:53;;;;;;;;;;;;;;;;;;5026076;28;19913;-87
2021/11/13 05:53:19;;;;;;;;;;;;;;;;;;5025972;28;19924;-83
2021/11/13 05:55:45;;;;;;;;;;;;;;;;;;5025356;28;19913;-84
2021/11/13 05:58:13;;;;;;;;;;;;;;;;;;5028326;28;19953;-86
2021/11/13 06:00:38;;;;;;;;;;;;;;;;;;5026794;28;19917;-88
2021/11/13 06:03:04;;;;;;;;;;;;;;;;;;5028356;28;20268;-89
2021/11/13 06:05:30;;;;;;;;;;;;;;;;;;5011908;28;19913;-88
2021/11/13 06:07:56;;;;;;;;;;;;;;;;;;5008618;28;19913;-89
2021/11/13 06:10:22;;;;;;;;;;;;;;;;;;5010205;28;20285;-87
2021/11/13 06:12:48;;;;;;;;;;;;;;;;;;5009768;28;19910;-85
2021/11/13 06:15:14;;;;;;;;;;;;;;;;;;5022619;28;19932;-86
2021/11/13 06:17:40;;;;;;;;;;;;;;;;;;5027576;28;19913;-85
2021/11/13 06:20:06;;;;;;;;;;;;;;;;;;5027684;28;19909;-82
2021/11/13 06:22:31;;;;;;;;;;;;;;;;;;5012611;28;19945;-84
2021/11/13 06:24:57;;;;;;;;;;;;;;;;;;5006228;28;19910;-85
2021/11/13 06:27:23;;;;;;;;;;;;;;;;;;5019098;28;19914;-84
2021/11/13 06:29:49;;;;;;;;;;;;;;;;;;5026521;28;19909;-83
2021/11/13 06:32:15;;;;;;;;;;;;;;;;;;5018966;28;19918;-88
2021/11/13 06:34:41;;;;;;;;;;;;;;;;;;5018192;28;19917;-86
2021/11/13 06:37:07;;;;;;;;;;;;;;;;;;5021597;28;19975;-85
2021/11/13 06:39:34;;;;;;;;;;;;;;;;;;5008368;28;20305;-84
2021/11/13 06:42:00;;;;;;;;;;;;;;;;;;5007140;28;19963;-85
2021/11/13 06:44:26;;;;;;;;;;;;;;;;;;5016548;28;19913;-86
2021/11/13 06:46:52;;;;;;;;;;;;;;;;;;5014319;28;19917;-85
2021/11/13 06:49:18;;;;;;;;;;;;;;;;;;5007854;28;19967;-85
2021/11/13 06:51:45;;;;;;;;;;;;;;;;;;5021278;28;19917;-85
2021/11/13 06:54:12;;;;;;;;;;;;;;;;;;5006701;28;19956;-86
2021/11/13 06:56:37;;;;;;;;;;;;;;;;;;5006143;28;20000;-82
2021/11/13 06:59:03;;;;;;;;;;;;;;;;;;5018277;28;20460;-80
2021/11/13 07:01:29;;;;;;;;;;;;;;;;;;5026792;28;19909;-82
2021/11/13 07:03:55;;;;;;;;;;;;;;;;;;5027575;28;19971;-82
2021/11/13 07:06:21;;;;;;;;;;;;;;;;;;5026148;28;19988;-79
2021/11/13 07:08:47;;;;;;;;;;;;;;;;;;5026004;28;19909;-81
2021/11/13 07:11:13;;;;;;;;;;;;;;;;;;5025720;28;19913;-83
2021/11/13 07:13:38;;;;;;;;;;;;;;;;;;5025937;28;19953;-80
2021/11/13 07:16:04;;;;;;;;;;;;;;;;;;5025732;28;19913;-80
2021/11/13 07:18:30;;;;;;;;;;;;;;;;;;5026475;28;19913;-79
2021/11/13 07:20:56;;;;;;;;;;;;;;;;;;5023997;28;19924;-80
2021/11/13 07:23:22;;;;;;;;;;;;;;;;;;5025621;28;20402;-80
2021/11/13 07:25:48;;;;;;;;;;;;;;;;;;5024325;28;19913;-83
2021/11/13 07:28:15;;;;;;;;;;;;;;;;;;5025881;28;19925;-78
2021/11/13 07:30:42;;;;;;;;;;;;;;;;;;5024586;28;19917;-80
2021/11/13 07:33:08;;;;;;;;;;;;;;;;;;5005735;28;20384;-80
2021/11/13 07:35:33;;;;;;;;;;;;;;;;;;5011535;28;19917;-81
2021/11/13 07:37:59;;;;;;;;;;;;;;;;;;5019715;28;20352;-80
2021/11/13 07:40:25;;;;;;;;;;;;;;;;;;5029252;28;19996;-79
2021/11/13 07:42:51;;;;;;;;;;;;;;;;;;5019200;28;19939;-80
2021/11/13 07:45:17;;;;;;;;;;;;;;;;;;5016494;28;20332;-79
2021/11/13 07:47:43;;;;;;;;;;;;;;;;;;5030956;28;19909;-80
2021/11/13 07:50:09;;;;;;;;;;;;;;;;;;5029822;28;19953;-78
2021/11/13 07:52:35;;;;;;;;;;;;;;;;;;5018588;28;19913;-78
2021/11/13 07:55:00;;;;;;;;;;;;;;;;;;5028030;28;20040;-80
2021/11/13 07:57:26;;;;;;;;;;;;;;;;;;5026056;28;19920;-77
2021/11/13 07:59:52;;;;;;;;;;;;;;;;;;5008961;28;20425;-79
2021/11/13 08:02:18;;;;;;;;;;;;;;;;;;5009731;28;19968;-79
2021/11/13 08:04:44;;;;;;;;;;;;;;;;;;5009330;28;19924;-80
2021/11/13 08:07:10;;;;;;;;;;;;;;;;;;5025634;28;19910;-79
2021/11/13 08:09:36;;;;;;;;;;;;;;;;;;5023831;28;19909;-79
2021/11/13 08:12:02;;;;;;;;;;;;;;;;;;5009419;28;19910;-78
2021/11/13 08:14:28;;;;;;;;;;;;;;;;;;5009498;28;20416;-78
2021/11/13 08:16:53;;;;;;;;;;;;;;;;;;5010056;28;19916;-78
2021/11/13 08:19:19;;;;;;;;;;;;;;;;;;5016599;28;19924;-79
2021/11/13 08:21:45;;;;;;;;;;;;;;;;;;5019812;28;20089;-79
2021/11/13 08:24:11;;;;;;;;;;;;;;;;;;5018830;28;19919;-77
2021/11/13 08:26:52;;;;;;;;;;;;;;;;;;5019538;28;19952;-79
2021/11/13 08:29:18;;;;;;;;;;;;;;;;;;5025215;28;19921;-78
2021/11/13 08:31:44;;;;;;;;;;;;;;;;;;5009335;28;19933;-78
2021/11/13 08:34:10;;;;;;;;;;;;;;;;;;5009395;28;19909;-79
2021/11/13 08:36:36;;;;;;;;;;;;;;;;;;5009124;28;19996;-78
2021/11/13 08:39:02;;;;;;;;;;;;;;;;;;5010182;28;19910;-77
2021/11/13 08:41:28;;;;;;;;;;;;;;;;;;5011752;28;19913;-78
2021/11/13 08:43:53;;;;;;;;;;;;;;;;;;5026628;28;20573;-79
2021/11/13 08:46:19;;;;;;;;;;;;;;;;;;5021778;28;19947;-78
2021/11/13 08:48:45;;;;;;;;;;;;;;;;;;5022899;28;20353;-79
2021/11/13 08:51:11;;;;;;;;;;;;;;;;;;5020738;28;19971;-79
2021/11/13 08:53:37;;;;;;;;;;;;;;;;;;5028816;28;19912;-79
2021/11/13 08:56:03;;;;;;;;;;;;;;;;;;5009657;28;19933;-77
2021/11/13 08:58:29;;;;;;;;;;;;;;;;;;5024497;28;20024;-78
2021/11/13 09:00:55;;;;;;;;;;;;;;;;;;5020126;28;20321;-78
2021/11/13 09:03:21;;;;;;;;;;;;;;;;;;5028522;28;19988;-79
2021/11/13 09:05:47;;;;;;;;;;;;;;;;;;5028472;28;20005;-78
2021/11/13 09:08:13;;;;;;;;;;;;;;;;;;5027653;28;19913;-78
2021/11/13 09:10:39;;;;;;;;;;;;;;;;;;5028356;28;20247;-78
2021/11/13 09:13:05;;;;;;;;;;;;;;;;;;5028252;28;20149;-79
2021/11/13 09:15:31;;;;;;;;;;;;;;;;;;5022725;28;20025;-79
2021/11/13 09:17:57;;;;;;;;;;;;;;;;;;5008626;28;20352;-79
2021/11/13 09:20:23;;;;;;;;;;;;;;;;;;5010170;28;19913;-77
2021/11/13 09:22:49;;;;;;;;;;;;;;;;;;5009304;28;20392;-77
2021/11/13 09:25:15;;;;;;;;;;;;;;;;;;5009117;28;19941;-79
2021/11/13 09:27:40;;;;;;;;;;;;;;;;;;5011536;28;19980;-79
2021/11/13 09:30:06;;;;;;;;;;;;;;;;;;5025518;28;19924;-79
2021/11/13 09:32:32;;;;;;;;;;;;;;;;;;5027870;28;19916;-76
2021/11/13 09:34:58;;;;;;;;;;;;;;;;;;5020031;28;20361;-78
2021/11/13 09:37:24;;;;;;;;;;;;;;;;;;5008152;28;19960;-79
2021/11/13 09:39:50;;;;;;;;;;;;;;;;;;5007686;28;20107;-80
2021/11/13 09:42:16;;;;;;;;;;;;;;;;;;5008405;28;19909;-79
2021/11/13 09:44:42;;;;;;;;;;;;;;;;;;5008098;28;20008;-79
2021/11/13 09:47:08;;;;;;;;;;;;;;;;;;5008115;28;20102;-78
2021/11/13 09:49:33;;;;;;;;;;;;;;;;;;5027094;28;20562;-80
2021/11/13 09:51:59;;;;;;;;;;;;;;;;;;5027770;28;19913;-79
2021/11/13 09:54:25;;;;;;;;;;;;;;;;;;5022750;28;19913;-79
2021/11/13 09:56:51;;;;;;;;;;;;;;;;;;5027097;28;19913;-80
2021/11/13 09:59:17;;;;;;;;;;;;;;;;;;5025366;28;19917;-81
2021/11/13 10:01:43;;;;;;;;;;;;;;;;;;5015704;28;19976;-79
2021/11/13 10:04:09;;;;;;;;;;;;;;;;;;5007572;28;19948;-80
2021/11/13 10:06:35;;;;;;;;;;;;;;;;;;5008617;28;19917;-77
2021/11/13 10:09:01;;;;;;;;;;;;;;;;;;5017986;28;19923;-78
2021/11/13 10:11:28;;;;;;;;;;;;;;;;;;5031399;28;20377;-78
2021/11/13 10:13:55;;;;;;;;;;;;;;;;;;5032891;28;20365;-77
2021/11/13 10:16:21;;;;;;;;;;;;;;;;;;5012120;28;20329;-78
2021/11/13 10:18:47;;;;;;;;;;;;;;;;;;5012736;28;19921;-78
2021/11/13 10:21:13;;;;;;;;;;;;;;;;;;5012304;28;19917;-74
2021/11/13 10:23:44;;;;;;;;;;;;;;;;;;5028203;28;20051;-76
2021/11/13 10:26:10;;;;;;;;;;;;;;;;;;5014821;28;19913;-77
2021/11/13 10:28:36;;;;;;;;;;;;;;;;;;5010374;28;20074;-78
2021/11/13 10:31:04;;;;;;;;;;;;;;;;;;4995795;28;22138;-78
2021/11/13 10:33:30;;;;;;;;;;;;;;;;;;5007952;28;19941;-78
2021/11/13 10:35:55;;;;;;;;;;;;;;;;;;5008510;28;19913;-78
2021/11/13 10:38:22;;;;;;;;;;;;;;;;;;5008125;28;19992;-78
2021/11/13 10:40:47;;;;;;;;;;;;;;;;;;5008106;28;19910;-78
2021/11/13 10:43:13;;;;;;;;;;;;;;;;;;5019410;28;19916;-78
2021/11/13 10:45:39;;;;;;;;;;;;;;;;;;5028013;28;20526;-77
2021/11/13 10:48:05;;;;;;;;;;;;;;;;;;5029075;28;19967;-78
2021/11/13 10:50:31;;;;;;;;;;;;;;;;;;5027762;28;19910;-78
2021/11/13 10:52:57;;;;;;;;;;;;;;;;;;5014773;28;20334;-78
2021/11/13 10:55:25;;;;;;;;;;;;;;;;;;5005009;28;19923;-78
2021/11/13 10:57:50;;;;;;;;;;;;;;;;;;5007572;28;19921;-78
2021/11/13 11:00:16;;;;;;;;;;;;;;;;;;5008414;28;19910;-78
2021/11/13 11:02:42;;;;;;;;;;;;;;;;;;5008357;28;19909;-78
2021/11/13 11:05:08;;;;;;;;;;;;;;;;;;5006457;28;20392;-77
2021/11/13 11:07:34;;;;;;;;;;;;;;;;;;5006913;28;19910;-78
2021/11/13 11:10:00;;;;;;;;;;;;;;;;;;5007592;28;20358;-78
2021/11/13 11:12:26;;;;;;;;;;;;;;;;;;5009775;28;19909;-78
2021/11/13 11:14:52;;;;;;;;;;;;;;;;;;5010634;28;19909;-78
2021/11/13 11:17:20;;;;;;;;;;;;;;;;;;5010339;28;19914;-78
2021/11/13 11:19:48;;;;;;;;;;;;;;;;;;5011894;28;19960;-78
2021/11/13 11:22:14;;;;;;;;;;;;;;;;;;5010522;28;19914;-78
2021/11/13 11:24:40;;;;;;;;;;;;;;;;;;5009990;28;20346;-79
2021/11/13 11:27:06;;;;;;;;;;;;;;;;;;5011341;28;19992;-79
2021/11/13 11:29:31;;;;;;;;;;;;;;;;;;5009745;28;19968;-77
2021/11/13 11:31:59;;;;;;;;;;;;;;;;;;5009438;28;20329;-79
2021/11/13 11:34:25;;;;;;;;;;;;;;;;;;5010142;28;19914;-79
2021/11/13 11:36:51;;;;;;;;;;;;;;;;;;5010608;28;20313;-78
2021/11/13 11:39:18;;;;;;;;;;;;;;;;;;5009333;28;20582;-78
2021/11/13 11:41:43;;;;;;;;;;;;;;;;;;5009385;28;19948;-78
2021/11/13 11:44:09;;;;;;;;;;;;;;;;;;5009492;28;19955;-78
2021/11/13 11:46:35;;;;;;;;;;;;;;;;;;5008996;28;19913;-78
2021/11/13 11:49:04;;;;;;;;;;;;;;;;;;5010942;28;19913;-78
2021/11/13 11:51:30;;;;;;;;;;;;;;;;;;5009240;28;20000;-78
2021/11/13 11:54:00;;;;;;;;;;;;;;;;;;5014483;28;20441;-81
2021/11/13 11:56:25;;;;;;;;;;;;;;;;;;5026432;28;20004;-79
2021/11/13 11:58:51;;;;;;;;;;;;;;;;;;5017971;28;19929;-79
2021/11/13 12:01:17;;;;;;;;;;;;;;;;;;5011718;28;19909;-79
2021/11/13 12:03:43;;;;;;;;;;;;;;;;;;5010170;28;20425;-79
2021/11/13 12:06:09;;;;;;;;;;;;;;;;;;5010407;28;19920;-78
2021/11/13 12:08:35;;;;;;;;;;;;;;;;;;5017962;28;19921;-79
2021/11/13 12:11:01;;;;;;;;;;;;;;;;;;5020200;28;20210;-79
2021/11/13 12:13:27;;;;;;;;;;;;;;;;;;5009127;28;20293;-78
2021/11/13 12:15:52;;;;;;;;;;;;;;;;;;5015488;28;19932;-78
2021/11/13 12:18:19;;;;;;;;;;;;;;;;;;5008863;28;19913;-79
2021/11/13 12:20:45;;;;;;;;;;;;;;;;;;5009309;28;19913;-79
2021/11/13 12:23:13;;;;;;;;;;;;;;;;;;5007965;28;19928;-78
2021/11/13 12:25:39;;;;;;;;;;;;;;;;;;5008577;28;20278;-78
2021/11/13 12:28:05;;;;;;;;;;;;;;;;;;5013159;28;19930;-78
2021/11/13 12:30:31;;;;;;;;;;;;;;;;;;5022490;28;19913;-79
2021/11/13 12:32:57;;;;;;;;;;;;;;;;;;5028478;28;20016;-79
2021/11/13 12:35:23;;;;;;;;;;;;;;;;;;5029036;28;19996;-79
2021/11/13 12:37:49;;;;;;;;;;;;;;;;;;5025389;28;19917;-78
2021/11/13 12:40:15;;;;;;;;;;;;;;;;;;5008589;28;19924;-79
2021/11/13 12:42:40;;;;;;;;;;;;;;;;;;5018564;28;19914;-79
2021/11/13 12:45:08;;;;;;;;;;;;;;;;;;5009014;28;19909;-78
2021/11/13 12:47:35;;;;;;;;;;;;;;;;;;5021558;28;19920;-77
2021/11/13 12:50:01;;;;;;;;;;;;;;;;;;5029089;28;19917;-77
2021/11/13 12:52:28;;;;;;;;;;;;;;;;;;5029901;28;19909;-79
2021/11/13 12:54:54;;;;;;;;;;;;;;;;;;5028795;28;19909;-78
2021/11/13 12:57:20;;;;;;;;;;;;;;;;;;5029370;28;20301;-78
2021/11/13 12:59:46;;;;;;;;;;;;;;;;;;5011263;28;19909;-77
2021/11/13 13:02:11;;;;;;;;;;;;;;;;;;5008872;28;20366;-78
2021/11/13 13:04:38;;;;;;;;;;;;;;;;;;5008857;28;19910;-78
2021/11/13 13:07:05;;;;;;;;;;;;;;;;;;5025026;28;19909;-79
2021/11/13 13:09:33;;;;;;;;;;;;;;;;;;5027853;28;19924;-77
2021/11/13 13:11:59;;;;;;;;;;;;;;;;;;5029227;28;19974;-78
2021/11/13 13:14:25;;;;;;;;;;;;;;;;;;5027813;28;19917;-78
2021/11/13 13:16:51;;;;;;;;;;;;;;;;;;5013132;28;19959;-78
2021/11/13 13:19:17;;;;;;;;;;;;;;;;;;5008364;28;20326;-78
2021/11/13 13:21:43;;;;;;;;;;;;;;;;;;5015554;28;19910;-77
2021/11/13 13:24:09;;;;;;;;;;;;;;;;;;5029947;28;19916;-78
2021/11/13 13:26:35;;;;;;;;;;;;;;;;;;5025409;28;19975;-79
2021/11/13 13:29:00;;;;;;;;;;;;;;;;;;5026240;28;19983;-79
2021/11/13 13:31:26;;;;;;;;;;;;;;;;;;5007354;28;20255;-79
2021/11/13 13:33:52;;;;;;;;;;;;;;;;;;5008174;28;19909;-78
2021/11/13 13:36:18;;;;;;;;;;;;;;;;;;5006348;28;19909;-79
2021/11/13 13:38:44;;;;;;;;;;;;;;;;;;5007524;28;20333;-78
2021/11/13 13:41:10;;;;;;;;;;;;;;;;;;5007505;28;19917;-79
2021/11/13 13:43:37;;;;;;;;;;;;;;;;;;5006820;28;19996;-78
2021/11/13 13:46:03;;;;;;;;;;;;;;;;;;5008197;28;19910;-78
2021/11/13 13:48:29;;;;;;;;;;;;;;;;;;5008175;28;19921;-78
2021/11/13 13:50:55;;;;;;;;;;;;;;;;;;5007555;28;19921;-78
2021/11/13 13:53:20;;;;;;;;;;;;;;;;;;5008717;28;19909;-78
2021/11/13 13:55:47;;;;;;;;;;;;;;;;;;5005903;28;20485;-78
2021/11/13 13:58:13;;;;;;;;;;;;;;;;;;5007062;28;19910;-78
2021/11/13 14:00:39;;;;;;;;;;;;;;;;;;5024856;28;19971;-78
2021/11/13 14:03:05;;;;;;;;;;;;;;;;;;5026859;28;20423;-78
2021/11/13 14:05:31;;;;;;;;;;;;;;;;;;5027104;28;19909;-79
2021/11/13 14:07:57;;;;;;;;;;;;;;;;;;5008487;28;20008;-78
2021/11/13 14:10:23;;;;;;;;;;;;;;;;;;5006605;28;20409;-79
2021/11/13 14:12:49;;;;;;;;;;;;;;;;;;5007132;28;19913;-78
2021/11/13 14:15:15;;;;;;;;;;;;;;;;;;5007964;28;19948;-79
2021/11/13 14:17:41;;;;;;;;;;;;;;;;;;5008410;28;20370;-78
2021/11/13 14:20:07;;;;;;;;;;;;;;;;;;5006325;28;19972;-78
2021/11/13 14:22:33;;;;;;;;;;;;;;;;;;5006395;28;20251;-79
2021/11/13 14:24:59;;;;;;;;;;;;;;;;;;5010934;28;19913;-79
2021/11/13 14:27:25;;;;;;;;;;;;;;;;;;5026539;28;20325;-79
2021/11/13 14:29:51;;;;;;;;;;;;;;;;;;5016950;28;19967;-79
2021/11/13 14:32:17;;;;;;;;;;;;;;;;;;5009399;28;19918;-78
2021/11/13 14:34:43;;;;;;;;;;;;;;;;;;5026180;28;19983;-78
2021/11/13 14:37:10;;;;;;;;;;;;;;;;;;5028093;28;19913;-76
2021/11/13 14:39:36;;;;;;;;;;;;;;;;;;5027235;28;19944;-77
2021/11/13 14:42:02;;;;;;;;;;;;;;;;;;5008387;28;20000;-77
2021/11/13 14:44:28;;;;;;;;;;;;;;;;;;5007466;28;20409;-77
2021/11/13 14:46:54;;;;;;;;;;;;;;;;;;5009163;28;19963;-76
2021/11/13 14:49:20;;;;;;;;;;;;;;;;;;5010816;28;19917;-75
2021/11/13 14:51:46;;;;;;;;;;;;;;;;;;5011059;28;20003;-77
2021/11/13 14:54:12;;;;;;;;;;;;;;;;;;5012131;28;19996;-76
2021/11/13 14:56:38;;;;;;;;;;;;;;;;;;5009184;28;20350;-77
2021/11/13 14:59:04;;;;;;;;;;;;;;;;;;5030306;28;19956;-76
2021/11/13 15:01:31;;;;;;;;;;;;;;;;;;5030589;28;19963;-75
2021/11/13 15:03:57;;;;;;;;;;;;;;;;;;5031826;28;20122;-76
2021/11/13 15:06:23;;;;;;;;;;;;;;;;;;5029996;28;20262;-76
2021/11/13 15:08:49;;;;;;;;;;;;;;;;;;5030514;28;19924;-77
2021/11/13 15:11:15;;;;;;;;;;;;;;;;;;5025576;28;20008;-77
2021/11/13 15:13:42;;;;;;;;;;;;;;;;;;5010823;28;19916;-76
2021/11/13 15:16:08;;;;;;;;;;;;;;;;;;5012128;28;19917;-77
2021/11/13 15:18:34;;;;;;;;;;;;;;;;;;5010695;28;19910;-77
2021/11/13 15:21:00;;;;;;;;;;;;;;;;;;5010045;28;19910;-76
2021/11/13 15:23:26;;;;;;;;;;;;;;;;;;5010270;28;19913;-76
2021/11/13 15:25:52;;;;;;;;;;;;;;;;;;5009533;28;19917;-75
2021/11/13 15:28:18;;;;;;;;;;;;;;;;;;5009699;28;19925;-76
2021/11/13 15:30:44;;;;;;;;;;;;;;;;;;5011292;28;19910;-77
2021/11/13 15:33:10;;;;;;;;;;;;;;;;;;5028519;28;19917;-77
2021/11/13 15:35:36;;;;;;;;;;;;;;;;;;5026683;28;19959;-76
2021/11/13 15:38:02;;;;;;;;;;;;;;;;;;5010151;28;20277;-76
2021/11/13 15:40:28;;;;;;;;;;;;;;;;;;5011032;28;19914;-77
2021/11/13 15:42:54;;;;;;;;;;;;;;;;;;5009564;28;19940;-76
2021/11/13 15:45:21;;;;;;;;;;;;;;;;;;5026424;28;19914;-76
2021/11/13 15:47:47;;;;;;;;;;;;;;;;;;5029005;28;19963;-78
2021/11/13 15:50:13;;;;;;;;;;;;;;;;;;5010042;28;19957;-77
2021/11/13 15:52:39;;;;;;;;;;;;;;;;;;5009584;28;19909;-76
2021/11/13 15:55:05;;;;;;;;;;;;;;;;;;5007403;28;20314;-77
2021/11/13 15:57:31;;;;;;;;;;;;;;;;;;5008479;28;19999;-77
2021/11/13 15:59:57;;;;;;;;;;;;;;;;;;5009266;28;20348;-76
2021/11/13 16:02:23;;;;;;;;;;;;;;;;;;5009430;28;19910;-76
2021/11/13 16:04:49;;;;;;;;;;;;;;;;;;5010884;28;19941;-75
2021/11/13 16:07:15;;;;;;;;;;;;;;;;;;5009497;28;19914;-76
2021/11/13 16:09:41;;;;;;;;;;;;;;;;;;5010315;28;19996;-76
2021/11/13 16:12:07;;;;;;;;;;;;;;;;;;5019537;28;19913;-76
2021/11/13 16:14:34;;;;;;;;;;;;;;;;;;5028952;28;19940;-76
2021/11/13 16:17:00;;;;;;;;;;;;;;;;;;5024063;28;19995;-77
2021/11/13 16:19:26;;;;;;;;;;;;;;;;;;5028521;28;20009;-76
2021/11/13 16:21:52;;;;;;;;;;;;;;;;;;5022811;28;20590;-76
2021/11/13 16:24:18;;;;;;;;;;;;;;;;;;5017800;28;20447;-75
2021/11/13 16:26:44;;;;;;;;;;;;;;;;;;5007373;28;19909;-76
2021/11/13 16:29:12;;;;;;;;;;;;;;;;;;5008460;28;19921;-76
2021/11/13 16:31:38;;;;;;;;;;;;;;;;;;5020131;28;20337;-76
2021/11/13 16:34:04;;;;;;;;;;;;;;;;;;5011052;28;19909;-77
2021/11/13 16:36:30;;;;;;;;;;;;;;;;;;5012740;28;19915;-76
2021/11/13 16:38:56;;;;;;;;;;;;;;;;;;5028388;28;19909;-75